sensor_id;sensor_type;location;lat;lon;timestamp;temperature;humidity
79065;DHT22;68469;51.502;7.462;2023-07-22T00:00:47;14.90;81.00
79065;DHT22;68469;51.502;7.462;2023-07-22T00:03:12;14.80;79.80
79065;DHT22;68469;51.502;7.462;2023-07-22T00:05:39;14.80;80.50
79065;DHT22;68469;51.502;7.462;2023-07-22T00:08:05;14.80;80.50
79065;DHT22;68469;51.502;7.462;2023-07-22T00:13:04;14.80;80.80
79065;DHT22;68469;51.502;7.462;2023-07-22T00:15:30;14.70;80.80
79065;DHT22;68469;51.502;7.462;2023-07-22T00:17:55;14.70;81.00
79065;DHT22;68469;51.502;7.462;2023-07-22T00:20:21;14.70;80.90
79065;DHT22;68469;51.502;7.462;2023-07-22T00:22:47;14.70;81.10
79065;DHT22;68469;51.502;7.462;2023-07-22T00:25:13;14.70;80.80
79065;DHT22;68469;51.502;7.462;2023-07-22T00:27:40;14.70;79.70
79065;DHT22;68469;51.502;7.462;2023-07-22T00:30:07;14.70;80.00
79065;DHT22;68469;51.502;7.462;2023-07-22T00:32:32;14.70;81.00
79065;DHT22;68469;51.502;7.462;2023-07-22T00:34:58;14.60;81.30
79065;DHT22;68469;51.502;7.462;2023-07-22T00:37:24;14.60;81.00
79065;DHT22;68469;51.502;7.462;2023-07-22T00:39:50;14.60;80.50
79065;DHT22;68469;51.502;7.462;2023-07-22T00:42:16;14.60;81.00
79065;DHT22;68469;51.502;7.462;2023-07-22T00:44:42;14.50;81.60
79065;DHT22;68469;51.502;7.462;2023-07-22T00:47:08;14.50;80.90
79065;DHT22;68469;51.502;7.462;2023-07-22T00:49:34;14.60;81.40
79065;DHT22;68469;51.502;7.462;2023-07-22T00:52:01;14.60;81.20
79065;DHT22;68469;51.502;7.462;2023-07-22T00:54:30;14.60;81.70
79065;DHT22;68469;51.502;7.462;2023-07-22T00:56:57;14.60;81.20
79065;DHT22;68469;51.502;7.462;2023-07-22T00:59:23;14.60;81.40
79065;DHT22;68469;51.502;7.462;2023-07-22T01:01:49;14.60;80.70
79065;DHT22;68469;51.502;7.462;2023-07-22T01:04:15;14.60;81.10
79065;DHT22;68469;51.502;7.462;2023-07-22T01:06:44;14.70;81.00
79065;DHT22;68469;51.502;7.462;2023-07-22T01:09:10;14.70;79.40
79065;DHT22;68469;51.502;7.462;2023-07-22T01:11:36;14.70;79.20
79065;DHT22;68469;51.502;7.462;2023-07-22T01:14:02;14.70;80.10
79065;DHT22;68469;51.502;7.462;2023-07-22T01:16:29;14.70;80.70
79065;DHT22;68469;51.502;7.462;2023-07-22T01:18:55;14.60;80.40
79065;DHT22;68469;51.502;7.462;2023-07-22T01:21:23;14.70;79.30
79065;DHT22;68469;51.502;7.462;2023-07-22T01:23:50;14.70;79.60
79065;DHT22;68469;51.502;7.462;2023-07-22T01:26:16;14.70;79.80
79065;DHT22;68469;51.502;7.462;2023-07-22T01:28:42;14.70;80.90
79065;DHT22;68469;51.502;7.462;2023-07-22T01:31:08;14.70;81.10
79065;DHT22;68469;51.502;7.462;2023-07-22T01:33:33;14.60;81.30
79065;DHT22;68469;51.502;7.462;2023-07-22T01:36:00;14.60;81.60
79065;DHT22;68469;51.502;7.462;2023-07-22T01:38:26;14.60;81.50
79065;DHT22;68469;51.502;7.462;2023-07-22T01:40:51;14.50;81.50
79065;DHT22;68469;51.502;7.462;2023-07-22T01:43:17;14.50;81.80
79065;DHT22;68469;51.502;7.462;2023-07-22T01:45:42;14.50;81.80
79065;DHT22;68469;51.502;7.462;2023-07-22T01:48:08;14.50;82.10
79065;DHT22;68469;51.502;7.462;2023-07-22T01:50:34;14.50;81.80
79065;DHT22;68469;51.502;7.462;2023-07-22T01:52:59;14.50;81.70
79065;DHT22;68469;51.502;7.462;2023-07-22T01:55:25;14.50;81.70
79065;DHT22;68469;51.502;7.462;2023-07-22T01:57:51;14.50;80.90
79065;DHT22;68469;51.502;7.462;2023-07-22T02:00:17;14.50;80.90
79065;DHT22;68469;51.502;7.462;2023-07-22T02:02:42;14.50;80.90
79065;DHT22;68469;51.502;7.462;2023-07-22T02:05:09;14.60;80.40
79065;DHT22;68469;51.502;7.462;2023-07-22T02:07:38;14.60;80.60
79065;DHT22;68469;51.502;7.462;2023-07-22T02:10:04;14.50;80.40
79065;DHT22;68469;51.502;7.462;2023-07-22T02:12:31;14.50;80.70
79065;DHT22;68469;51.502;7.462;2023-07-22T02:14:56;14.50;81.00
79065;DHT22;68469;51.502;7.462;2023-07-22T02:17:22;14.60;81.20
79065;DHT22;68469;51.502;7.462;2023-07-22T02:19:49;14.60;80.90
79065;DHT22;68469;51.502;7.462;2023-07-22T02:22:14;14.60;81.50
79065;DHT22;68469;51.502;7.462;2023-07-22T02:24:40;14.60;80.90
79065;DHT22;68469;51.502;7.462;2023-07-22T02:27:06;14.60;80.90
79065;DHT22;68469;51.502;7.462;2023-07-22T02:29:32;14.60;80.80
79065;DHT22;68469;51.502;7.462;2023-07-22T02:31:58;14.60;80.70
79065;DHT22;68469;51.502;7.462;2023-07-22T02:34:23;14.60;80.60
79065;DHT22;68469;51.502;7.462;2023-07-22T02:36:49;14.60;80.60
79065;DHT22;68469;51.502;7.462;2023-07-22T02:39:14;14.60;80.40
79065;DHT22;68469;51.502;7.462;2023-07-22T02:41:40;14.60;80.80
79065;DHT22;68469;51.502;7.462;2023-07-22T02:44:06;14.60;80.70
79065;DHT22;68469;51.502;7.462;2023-07-22T02:46:32;14.60;80.40
79065;DHT22;68469;51.502;7.462;2023-07-22T02:48:58;14.70;80.90
79065;DHT22;68469;51.502;7.462;2023-07-22T02:51:24;14.70;81.20
79065;DHT22;68469;51.502;7.462;2023-07-22T02:53:50;14.60;81.00
79065;DHT22;68469;51.502;7.462;2023-07-22T02:56:15;14.60;81.70
79065;DHT22;68469;51.502;7.462;2023-07-22T02:58:41;14.60;81.50
79065;DHT22;68469;51.502;7.462;2023-07-22T03:01:07;14.60;81.20
79065;DHT22;68469;51.502;7.462;2023-07-22T03:03:34;14.70;81.10
79065;DHT22;68469;51.502;7.462;2023-07-22T03:06:01;14.70;80.80
79065;DHT22;68469;51.502;7.462;2023-07-22T03:08:27;14.70;81.20
79065;DHT22;68469;51.502;7.462;2023-07-22T03:10:53;14.60;81.50
79065;DHT22;68469;51.502;7.462;2023-07-22T03:13:18;14.70;81.20
79065;DHT22;68469;51.502;7.462;2023-07-22T03:15:44;14.70;80.90
79065;DHT22;68469;51.502;7.462;2023-07-22T03:18:10;14.70;80.50
79065;DHT22;68469;51.502;7.462;2023-07-22T03:20:37;14.70;81.20
79065;DHT22;68469;51.502;7.462;2023-07-22T03:23:03;14.80;80.70
79065;DHT22;68469;51.502;7.462;2023-07-22T03:25:30;14.80;81.20
79065;DHT22;68469;51.502;7.462;2023-07-22T03:27:55;14.80;80.80
79065;DHT22;68469;51.502;7.462;2023-07-22T03:30:22;14.80;81.00
79065;DHT22;68469;51.502;7.462;2023-07-22T03:32:48;14.90;80.00
79065;DHT22;68469;51.502;7.462;2023-07-22T03:35:16;14.90;79.70
79065;DHT22;68469;51.502;7.462;2023-07-22T03:37:42;14.90;79.60
79065;DHT22;68469;51.502;7.462;2023-07-22T03:40:09;14.90;80.10
79065;DHT22;68469;51.502;7.462;2023-07-22T03:42:43;15.00;79.30
79065;DHT22;68469;51.502;7.462;2023-07-22T03:45:08;15.00;79.50
79065;DHT22;68469;51.502;7.462;2023-07-22T03:47:37;15.00;79.40
79065;DHT22;68469;51.502;7.462;2023-07-22T03:50:03;15.00;80.00
79065;DHT22;68469;51.502;7.462;2023-07-22T03:52:29;15.00;79.50
79065;DHT22;68469;51.502;7.462;2023-07-22T03:54:54;15.10;79.70
79065;DHT22;68469;51.502;7.462;2023-07-22T03:57:28;15.10;79.80
79065;DHT22;68469;51.502;7.462;2023-07-22T03:59:55;15.10;78.80
79065;DHT22;68469;51.502;7.462;2023-07-22T04:02:21;15.20;78.80
79065;DHT22;68469;51.502;7.462;2023-07-22T04:04:47;15.20;79.00
79065;DHT22;68469;51.502;7.462;2023-07-22T04:07:12;15.20;78.20
79065;DHT22;68469;51.502;7.462;2023-07-22T04:09:38;15.20;78.50
79065;DHT22;68469;51.502;7.462;2023-07-22T04:12:04;15.20;78.00
79065;DHT22;68469;51.502;7.462;2023-07-22T04:14:30;15.20;78.20
79065;DHT22;68469;51.502;7.462;2023-07-22T04:16:55;15.30;77.50
79065;DHT22;68469;51.502;7.462;2023-07-22T04:19:21;15.30;76.80
79065;DHT22;68469;51.502;7.462;2023-07-22T04:21:46;15.30;76.00
79065;DHT22;68469;51.502;7.462;2023-07-22T04:24:12;15.30;76.70
79065;DHT22;68469;51.502;7.462;2023-07-22T04:26:38;15.30;76.90
79065;DHT22;68469;51.502;7.462;2023-07-22T04:29:03;15.40;76.70
79065;DHT22;68469;51.502;7.462;2023-07-22T04:31:29;15.40;76.60
79065;DHT22;68469;51.502;7.462;2023-07-22T04:33:54;15.40;76.10
79065;DHT22;68469;51.502;7.462;2023-07-22T04:36:20;15.40;76.70
79065;DHT22;68469;51.502;7.462;2023-07-22T04:38:45;15.50;76.20
79065;DHT22;68469;51.502;7.462;2023-07-22T04:41:11;15.50;76.60
79065;DHT22;68469;51.502;7.462;2023-07-22T04:43:37;15.50;76.70
79065;DHT22;68469;51.502;7.462;2023-07-22T04:46:02;15.50;76.50
79065;DHT22;68469;51.502;7.462;2023-07-22T04:48:28;15.60;75.90
79065;DHT22;68469;51.502;7.462;2023-07-22T04:50:53;15.60;75.70
79065;DHT22;68469;51.502;7.462;2023-07-22T04:53:19;15.60;75.30
79065;DHT22;68469;51.502;7.462;2023-07-22T04:55:45;15.70;76.50
79065;DHT22;68469;51.502;7.462;2023-07-22T04:58:10;15.70;77.10
79065;DHT22;68469;51.502;7.462;2023-07-22T05:00:37;15.70;75.40
79065;DHT22;68469;51.502;7.462;2023-07-22T05:03:03;15.80;76.60
79065;DHT22;68469;51.502;7.462;2023-07-22T05:05:29;15.80;76.10
79065;DHT22;68469;51.502;7.462;2023-07-22T05:07:55;15.80;76.50
79065;DHT22;68469;51.502;7.462;2023-07-22T05:10:20;15.80;76.40
79065;DHT22;68469;51.502;7.462;2023-07-22T05:12:46;15.90;73.70
79065;DHT22;68469;51.502;7.462;2023-07-22T05:15:12;15.90;74.40
79065;DHT22;68469;51.502;7.462;2023-07-22T05:17:38;15.90;73.20
79065;DHT22;68469;51.502;7.462;2023-07-22T05:20:05;16.00;73.50
79065;DHT22;68469;51.502;7.462;2023-07-22T05:22:38;16.00;73.10
79065;DHT22;68469;51.502;7.462;2023-07-22T05:25:05;16.10;72.90
79065;DHT22;68469;51.502;7.462;2023-07-22T05:27:31;16.20;73.00
79065;DHT22;68469;51.502;7.462;2023-07-22T05:29:57;16.30;73.50
79065;DHT22;68469;51.502;7.462;2023-07-22T05:32:23;16.30;73.90
79065;DHT22;68469;51.502;7.462;2023-07-22T05:34:48;16.40;72.60
79065;DHT22;68469;51.502;7.462;2023-07-22T05:37:14;16.50;72.40
79065;DHT22;68469;51.502;7.462;2023-07-22T05:39:39;16.50;73.20
79065;DHT22;68469;51.502;7.462;2023-07-22T05:42:05;16.60;72.80
79065;DHT22;68469;51.502;7.462;2023-07-22T05:44:31;16.60;72.90
79065;DHT22;68469;51.502;7.462;2023-07-22T05:46:57;16.60;72.70
79065;DHT22;68469;51.502;7.462;2023-07-22T05:49:22;16.60;72.40
79065;DHT22;68469;51.502;7.462;2023-07-22T05:51:48;16.60;72.00
79065;DHT22;68469;51.502;7.462;2023-07-22T05:54:13;16.60;72.10
79065;DHT22;68469;51.502;7.462;2023-07-22T05:56:39;16.60;72.40
79065;DHT22;68469;51.502;7.462;2023-07-22T05:59:05;16.80;72.60
79065;DHT22;68469;51.502;7.462;2023-07-22T06:01:31;17.00;72.20
79065;DHT22;68469;51.502;7.462;2023-07-22T06:03:56;17.30;71.50
79065;DHT22;68469;51.502;7.462;2023-07-22T06:06:22;17.70;69.10
79065;DHT22;68469;51.502;7.462;2023-07-22T06:08:48;18.00;67.60
79065;DHT22;68469;51.502;7.462;2023-07-22T06:11:13;18.30;66.70
79065;DHT22;68469;51.502;7.462;2023-07-22T06:13:39;18.70;65.80
79065;DHT22;68469;51.502;7.462;2023-07-22T06:16:04;19.10;63.90
79065;DHT22;68469;51.502;7.462;2023-07-22T06:18:30;19.30;63.50
79065;DHT22;68469;51.502;7.462;2023-07-22T06:20:55;19.50;63.50
79065;DHT22;68469;51.502;7.462;2023-07-22T06:23:21;19.60;61.90
79065;DHT22;68469;51.502;7.462;2023-07-22T06:25:47;19.90;62.90
79065;DHT22;68469;51.502;7.462;2023-07-22T06:28:12;20.00;61.90
79065;DHT22;68469;51.502;7.462;2023-07-22T06:30:38;20.20;59.20
79065;DHT22;68469;51.502;7.462;2023-07-22T06:33:03;20.40;59.40
79065;DHT22;68469;51.502;7.462;2023-07-22T06:35:29;20.40;57.60
79065;DHT22;68469;51.502;7.462;2023-07-22T06:37:55;20.70;59.00
79065;DHT22;68469;51.502;7.462;2023-07-22T06:40:20;20.80;58.40
79065;DHT22;68469;51.502;7.462;2023-07-22T06:42:46;20.90;57.90
79065;DHT22;68469;51.502;7.462;2023-07-22T06:45:11;20.90;58.10
79065;DHT22;68469;51.502;7.462;2023-07-22T06:47:37;21.00;58.10
79065;DHT22;68469;51.502;7.462;2023-07-22T06:50:03;21.10;57.20
79065;DHT22;68469;51.502;7.462;2023-07-22T06:52:30;21.20;56.40
79065;DHT22;68469;51.502;7.462;2023-07-22T06:54:56;21.40;57.40
79065;DHT22;68469;51.502;7.462;2023-07-22T06:57:21;21.60;57.00
79065;DHT22;68469;51.502;7.462;2023-07-22T06:59:47;21.70;55.30
79065;DHT22;68469;51.502;7.462;2023-07-22T07:02:12;22.00;54.60
79065;DHT22;68469;51.502;7.462;2023-07-22T07:04:38;22.20;54.40
79065;DHT22;68469;51.502;7.462;2023-07-22T07:07:04;22.30;52.40
79065;DHT22;68469;51.502;7.462;2023-07-22T07:09:29;22.50;53.60
79065;DHT22;68469;51.502;7.462;2023-07-22T07:11:55;22.60;52.40
79065;DHT22;68469;51.502;7.462;2023-07-22T07:14:24;22.80;52.30
79065;DHT22;68469;51.502;7.462;2023-07-22T07:16:52;22.90;51.20
79065;DHT22;68469;51.502;7.462;2023-07-22T07:19:18;23.10;51.60
79065;DHT22;68469;51.502;7.462;2023-07-22T07:21:43;23.30;50.70
79065;DHT22;68469;51.502;7.462;2023-07-22T07:24:09;23.50;51.20
79065;DHT22;68469;51.502;7.462;2023-07-22T07:26:35;23.60;50.30
79065;DHT22;68469;51.502;7.462;2023-07-22T07:29:00;23.60;48.40
79065;DHT22;68469;51.502;7.462;2023-07-22T07:31:26;23.60;50.50
79065;DHT22;68469;51.502;7.462;2023-07-22T07:33:52;23.70;51.00
79065;DHT22;68469;51.502;7.462;2023-07-22T07:36:18;23.80;49.90
79065;DHT22;68469;51.502;7.462;2023-07-22T07:38:43;24.00;49.60
79065;DHT22;68469;51.502;7.462;2023-07-22T07:41:10;24.20;49.30
79065;DHT22;68469;51.502;7.462;2023-07-22T07:43:40;24.30;49.20
79065;DHT22;68469;51.502;7.462;2023-07-22T07:46:26;24.40;49.00
79065;DHT22;68469;51.502;7.462;2023-07-22T07:48:56;24.50;48.80
79065;DHT22;68469;51.502;7.462;2023-07-22T07:51:23;24.60;48.30
79065;DHT22;68469;51.502;7.462;2023-07-22T07:53:50;24.60;46.60
79065;DHT22;68469;51.502;7.462;2023-07-22T07:56:17;24.50;46.60
79065;DHT22;68469;51.502;7.462;2023-07-22T07:58:44;24.40;45.70
79065;DHT22;68469;51.502;7.462;2023-07-22T08:01:10;24.50;46.20
79065;DHT22;68469;51.502;7.462;2023-07-22T08:03:36;24.30;46.50
79065;DHT22;68469;51.502;7.462;2023-07-22T08:06:03;24.30;46.80
79065;DHT22;68469;51.502;7.462;2023-07-22T08:08:29;24.40;46.30
79065;DHT22;68469;51.502;7.462;2023-07-22T08:11:05;24.30;46.20
79065;DHT22;68469;51.502;7.462;2023-07-22T08:13:31;24.20;45.70
79065;DHT22;68469;51.502;7.462;2023-07-22T08:15:59;24.10;47.50
79065;DHT22;68469;51.502;7.462;2023-07-22T08:18:25;24.00;46.70
79065;DHT22;68469;51.502;7.462;2023-07-22T08:20:55;24.00;46.70
79065;DHT22;68469;51.502;7.462;2023-07-22T08:23:21;24.10;47.70
79065;DHT22;68469;51.502;7.462;2023-07-22T08:25:47;24.40;47.20
79065;DHT22;68469;51.502;7.462;2023-07-22T08:28:14;24.70;47.80
79065;DHT22;68469;51.502;7.462;2023-07-22T08:30:39;25.00;47.00
79065;DHT22;68469;51.502;7.462;2023-07-22T08:33:06;25.20;46.40
79065;DHT22;68469;51.502;7.462;2023-07-22T08:35:34;25.40;45.60
79065;DHT22;68469;51.502;7.462;2023-07-22T08:38:00;25.50;44.30
79065;DHT22;68469;51.502;7.462;2023-07-22T08:40:27;25.50;45.60
79065;DHT22;68469;51.502;7.462;2023-07-22T08:42:54;25.50;45.00
79065;DHT22;68469;51.502;7.462;2023-07-22T08:45:20;25.50;45.10
79065;DHT22;68469;51.502;7.462;2023-07-22T08:47:47;25.60;44.80
79065;DHT22;68469;51.502;7.462;2023-07-22T08:50:20;25.50;43.90
79065;DHT22;68469;51.502;7.462;2023-07-22T08:52:46;25.70;44.80
79065;DHT22;68469;51.502;7.462;2023-07-22T08:55:13;25.80;44.80
79065;DHT22;68469;51.502;7.462;2023-07-22T08:57:39;25.70;43.80
79065;DHT22;68469;51.502;7.462;2023-07-22T09:00:07;25.60;43.20
79065;DHT22;68469;51.502;7.462;2023-07-22T09:02:33;25.60;43.90
79065;DHT22;68469;51.502;7.462;2023-07-22T09:05:00;25.60;43.80
79065;DHT22;68469;51.502;7.462;2023-07-22T09:07:26;25.70;44.30
79065;DHT22;68469;51.502;7.462;2023-07-22T09:09:52;25.80;43.40
79065;DHT22;68469;51.502;7.462;2023-07-22T09:12:20;25.80;42.80
79065;DHT22;68469;51.502;7.462;2023-07-22T09:14:46;25.90;43.00
79065;DHT22;68469;51.502;7.462;2023-07-22T09:17:13;25.90;42.00
79065;DHT22;68469;51.502;7.462;2023-07-22T09:19:39;26.20;42.20
79065;DHT22;68469;51.502;7.462;2023-07-22T09:22:04;26.30;41.80
79065;DHT22;68469;51.502;7.462;2023-07-22T09:24:30;26.40;40.60
79065;DHT22;68469;51.502;7.462;2023-07-22T09:26:57;26.30;41.60
79065;DHT22;68469;51.502;7.462;2023-07-22T09:29:34;26.20;41.10
79065;DHT22;68469;51.502;7.462;2023-07-22T09:31:59;26.20;42.10
79065;DHT22;68469;51.502;7.462;2023-07-22T09:34:25;26.10;42.10
79065;DHT22;68469;51.502;7.462;2023-07-22T09:36:55;26.00;42.00
79065;DHT22;68469;51.502;7.462;2023-07-22T09:39:22;25.90;42.20
79065;DHT22;68469;51.502;7.462;2023-07-22T09:41:49;25.80;41.70
79065;DHT22;68469;51.502;7.462;2023-07-22T09:44:14;25.60;42.30
79065;DHT22;68469;51.502;7.462;2023-07-22T09:46:41;25.30;43.00
79065;DHT22;68469;51.502;7.462;2023-07-22T09:49:09;25.20;42.80
79065;DHT22;68469;51.502;7.462;2023-07-22T09:51:39;24.90;44.00
79065;DHT22;68469;51.502;7.462;2023-07-22T09:54:05;24.80;44.40
79065;DHT22;68469;51.502;7.462;2023-07-22T09:56:32;24.70;44.70
79065;DHT22;68469;51.502;7.462;2023-07-22T09:58:59;24.60;44.60
79065;DHT22;68469;51.502;7.462;2023-07-22T10:01:26;24.50;44.10
79065;DHT22;68469;51.502;7.462;2023-07-22T10:03:56;24.50;44.10
79065;DHT22;68469;51.502;7.462;2023-07-22T10:06:27;24.50;45.50
79065;DHT22;68469;51.502;7.462;2023-07-22T10:08:55;24.40;43.70
79065;DHT22;68469;51.502;7.462;2023-07-22T10:11:22;24.40;44.10
79065;DHT22;68469;51.502;7.462;2023-07-22T10:13:48;24.60;44.40
79065;DHT22;68469;51.502;7.462;2023-07-22T10:16:15;24.80;44.60
79065;DHT22;68469;51.502;7.462;2023-07-22T10:18:42;25.10;43.00
79065;DHT22;68469;51.502;7.462;2023-07-22T10:21:08;25.50;43.50
79065;DHT22;68469;51.502;7.462;2023-07-22T10:23:34;25.70;42.60
79065;DHT22;68469;51.502;7.462;2023-07-22T10:26:01;25.90;43.90
79065;DHT22;68469;51.502;7.462;2023-07-22T10:28:28;26.10;42.10
79065;DHT22;68469;51.502;7.462;2023-07-22T10:30:54;26.20;41.70
79065;DHT22;68469;51.502;7.462;2023-07-22T10:33:22;26.20;40.70
79065;DHT22;68469;51.502;7.462;2023-07-22T10:36:13;26.10;41.20
79065;DHT22;68469;51.502;7.462;2023-07-22T10:38:39;26.30;40.60
79065;DHT22;68469;51.502;7.462;2023-07-22T10:41:14;26.60;40.20
79065;DHT22;68469;51.502;7.462;2023-07-22T10:43:42;27.20;40.90
79065;DHT22;68469;51.502;7.462;2023-07-22T10:46:31;27.50;39.00
79065;DHT22;68469;51.502;7.462;2023-07-22T10:49:10;27.40;39.50
79065;DHT22;68469;51.502;7.462;2023-07-22T10:51:37;27.50;40.70
79065;DHT22;68469;51.502;7.462;2023-07-22T10:54:03;27.60;40.00
79065;DHT22;68469;51.502;7.462;2023-07-22T10:56:35;27.70;40.20
79065;DHT22;68469;51.502;7.462;2023-07-22T10:59:01;28.00;39.70
79065;DHT22;68469;51.502;7.462;2023-07-22T11:04:13;28.70;39.10
79065;DHT22;68469;51.502;7.462;2023-07-22T11:06:52;28.90;39.10
79065;DHT22;68469;51.502;7.462;2023-07-22T11:12:16;31.60;35.40
79065;DHT22;68469;51.502;7.462;2023-07-22T11:14:50;33.30;29.90
79065;DHT22;68469;51.502;7.462;2023-07-22T11:17:37;34.80;30.90
79065;DHT22;68469;51.502;7.462;2023-07-22T11:20:02;36.30;29.40
79065;DHT22;68469;51.502;7.462;2023-07-22T11:22:28;37.50;27.70
79065;DHT22;68469;51.502;7.462;2023-07-22T11:24:57;38.30;26.80
79065;DHT22;68469;51.502;7.462;2023-07-22T11:27:23;38.80;27.30
79065;DHT22;68469;51.502;7.462;2023-07-22T11:29:49;39.40;26.70
79065;DHT22;68469;51.502;7.462;2023-07-22T11:32:18;39.70;26.20
79065;DHT22;68469;51.502;7.462;2023-07-22T11:34:46;40.10;25.70
79065;DHT22;68469;51.502;7.462;2023-07-22T11:37:12;40.80;25.70
79065;DHT22;68469;51.502;7.462;2023-07-22T11:39:39;41.40;25.50
79065;DHT22;68469;51.502;7.462;2023-07-22T11:42:07;42.00;24.90
79065;DHT22;68469;51.502;7.462;2023-07-22T11:44:32;41.70;24.40
79065;DHT22;68469;51.502;7.462;2023-07-22T11:46:59;40.70;25.10
79065;DHT22;68469;51.502;7.462;2023-07-22T11:49:33;40.80;25.60
79065;DHT22;68469;51.502;7.462;2023-07-22T11:52:20;41.40;25.10
79065;DHT22;68469;51.502;7.462;2023-07-22T11:54:46;42.10;24.70
79065;DHT22;68469;51.502;7.462;2023-07-22T11:59:47;40.30;24.20
79065;DHT22;68469;51.502;7.462;2023-07-22T12:02:19;39.00;24.90
79065;DHT22;68469;51.502;7.462;2023-07-22T12:05:03;37.60;25.30
79065;DHT22;68469;51.502;7.462;2023-07-22T12:07:37;36.50;26.50
79065;DHT22;68469;51.502;7.462;2023-07-22T12:10:06;35.90;27.00
79065;DHT22;68469;51.502;7.462;2023-07-22T12:15:12;36.00;27.70
79065;DHT22;68469;51.502;7.462;2023-07-22T12:17:59;36.90;26.90
79065;DHT22;68469;51.502;7.462;2023-07-22T12:20:34;37.90;26.30
79065;DHT22;68469;51.502;7.462;2023-07-22T12:23:01;37.70;26.20
79065;DHT22;68469;51.502;7.462;2023-07-22T12:25:27;36.70;26.30
79065;DHT22;68469;51.502;7.462;2023-07-22T12:27:53;35.40;28.10
79065;DHT22;68469;51.502;7.462;2023-07-22T12:30:18;34.50;28.60
79065;DHT22;68469;51.502;7.462;2023-07-22T12:32:45;33.80;28.60
79065;DHT22;68469;51.502;7.462;2023-07-22T12:35:10;33.30;29.60
79065;DHT22;68469;51.502;7.462;2023-07-22T12:37:36;33.00;29.60
79065;DHT22;68469;51.502;7.462;2023-07-22T12:40:02;32.40;30.60
79065;DHT22;68469;51.502;7.462;2023-07-22T12:42:34;31.60;30.60
79065;DHT22;68469;51.502;7.462;2023-07-22T12:44:59;31.00;31.90
79065;DHT22;68469;51.502;7.462;2023-07-22T12:47:25;30.60;33.70
79065;DHT22;68469;51.502;7.462;2023-07-22T12:49:51;30.30;33.70
79065;DHT22;68469;51.502;7.462;2023-07-22T12:52:17;30.00;34.00
79065;DHT22;68469;51.502;7.462;2023-07-22T12:54:42;29.80;34.60
79065;DHT22;68469;51.502;7.462;2023-07-22T12:57:08;29.70;33.50
79065;DHT22;68469;51.502;7.462;2023-07-22T12:59:33;29.60;35.10
79065;DHT22;68469;51.502;7.462;2023-07-22T13:01:59;29.60;34.70
79065;DHT22;68469;51.502;7.462;2023-07-22T13:04:25;29.60;35.30
79065;DHT22;68469;51.502;7.462;2023-07-22T13:06:50;29.50;34.70
79065;DHT22;68469;51.502;7.462;2023-07-22T13:09:17;29.30;34.70
79065;DHT22;68469;51.502;7.462;2023-07-22T13:11:43;29.20;34.00
79065;DHT22;68469;51.502;7.462;2023-07-22T13:14:08;28.80;33.10
79065;DHT22;68469;51.502;7.462;2023-07-22T13:16:34;28.60;34.20
79065;DHT22;68469;51.502;7.462;2023-07-22T13:19:00;28.50;36.00
79065;DHT22;68469;51.502;7.462;2023-07-22T13:21:28;28.40;36.40
79065;DHT22;68469;51.502;7.462;2023-07-22T13:23:54;28.20;35.70
79065;DHT22;68469;51.502;7.462;2023-07-22T13:26:19;28.10;35.00
79065;DHT22;68469;51.502;7.462;2023-07-22T13:28:45;28.10;36.60
79065;DHT22;68469;51.502;7.462;2023-07-22T13:31:11;28.10;36.00
79065;DHT22;68469;51.502;7.462;2023-07-22T13:33:37;28.00;35.80
79065;DHT22;68469;51.502;7.462;2023-07-22T13:36:02;27.90;36.40
79065;DHT22;68469;51.502;7.462;2023-07-22T13:38:28;27.80;36.20
79065;DHT22;68469;51.502;7.462;2023-07-22T13:40:54;27.70;35.30
79065;DHT22;68469;51.502;7.462;2023-07-22T13:43:19;27.60;36.30
79065;DHT22;68469;51.502;7.462;2023-07-22T13:45:45;27.60;36.60
79065;DHT22;68469;51.502;7.462;2023-07-22T13:48:10;27.50;37.20
79065;DHT22;68469;51.502;7.462;2023-07-22T13:50:37;27.50;37.50
79065;DHT22;68469;51.502;7.462;2023-07-22T13:53:02;27.20;36.90
79065;DHT22;68469;51.502;7.462;2023-07-22T13:55:28;27.20;38.00
79065;DHT22;68469;51.502;7.462;2023-07-22T13:57:54;27.20;36.90
79065;DHT22;68469;51.502;7.462;2023-07-22T14:00:19;27.00;36.80
79065;DHT22;68469;51.502;7.462;2023-07-22T14:02:45;26.90;37.60
79065;DHT22;68469;51.502;7.462;2023-07-22T14:05:11;26.80;37.60
79065;DHT22;68469;51.502;7.462;2023-07-22T14:07:36;26.70;37.60
79065;DHT22;68469;51.502;7.462;2023-07-22T14:10:02;26.70;37.90
79065;DHT22;68469;51.502;7.462;2023-07-22T14:12:29;26.60;38.60
79065;DHT22;68469;51.502;7.462;2023-07-22T14:14:55;26.50;38.40
79065;DHT22;68469;51.502;7.462;2023-07-22T14:17:20;26.40;38.70
79065;DHT22;68469;51.502;7.462;2023-07-22T14:19:46;26.30;38.50
79065;DHT22;68469;51.502;7.462;2023-07-22T14:22:12;26.20;39.50
79065;DHT22;68469;51.502;7.462;2023-07-22T14:24:37;26.00;39.60
79065;DHT22;68469;51.502;7.462;2023-07-22T14:27:03;26.00;38.80
79065;DHT22;68469;51.502;7.462;2023-07-22T14:29:28;25.90;39.30
79065;DHT22;68469;51.502;7.462;2023-07-22T14:31:56;25.80;38.10
79065;DHT22;68469;51.502;7.462;2023-07-22T14:34:22;25.70;39.70
79065;DHT22;68469;51.502;7.462;2023-07-22T14:36:48;25.70;39.80
79065;DHT22;68469;51.502;7.462;2023-07-22T14:39:14;25.60;39.20
79065;DHT22;68469;51.502;7.462;2023-07-22T14:41:41;25.50;39.20
79065;DHT22;68469;51.502;7.462;2023-07-22T14:44:09;25.40;40.20
79065;DHT22;68469;51.502;7.462;2023-07-22T14:46:34;25.40;40.00
79065;DHT22;68469;51.502;7.462;2023-07-22T14:49:00;25.30;39.40
79065;DHT22;68469;51.502;7.462;2023-07-22T14:51:26;25.20;38.90
79065;DHT22;68469;51.502;7.462;2023-07-22T14:53:52;25.20;39.90
79065;DHT22;68469;51.502;7.462;2023-07-22T14:56:17;25.20;39.80
79065;DHT22;68469;51.502;7.462;2023-07-22T14:58:44;25.10;41.00
79065;DHT22;68469;51.502;7.462;2023-07-22T15:01:09;25.10;39.70
79065;DHT22;68469;51.502;7.462;2023-07-22T15:03:37;25.00;38.60
79065;DHT22;68469;51.502;7.462;2023-07-22T15:06:04;24.90;38.70
79065;DHT22;68469;51.502;7.462;2023-07-22T15:08:30;24.90;39.50
79065;DHT22;68469;51.502;7.462;2023-07-22T15:10:56;24.90;38.50
79065;DHT22;68469;51.502;7.462;2023-07-22T15:13:21;24.90;38.60
79065;DHT22;68469;51.502;7.462;2023-07-22T15:15:47;24.90;38.40
79065;DHT22;68469;51.502;7.462;2023-07-22T15:18:13;24.80;38.70
79065;DHT22;68469;51.502;7.462;2023-07-22T15:20:38;24.70;39.00
79065;DHT22;68469;51.502;7.462;2023-07-22T15:23:04;24.60;37.50
79065;DHT22;68469;51.502;7.462;2023-07-22T15:25:30;24.60;38.60
79065;DHT22;68469;51.502;7.462;2023-07-22T15:27:55;24.50;39.20
79065;DHT22;68469;51.502;7.462;2023-07-22T15:30:21;24.40;38.50
79065;DHT22;68469;51.502;7.462;2023-07-22T15:32:47;24.30;39.60
79065;DHT22;68469;51.502;7.462;2023-07-22T15:35:12;24.30;39.80
79065;DHT22;68469;51.502;7.462;2023-07-22T15:37:40;24.20;39.30
79065;DHT22;68469;51.502;7.462;2023-07-22T15:40:06;24.20;38.70